Meadows Of Dan, Virginia
Current Conditions -  °F | °C
As of 7:55 AM on Wednesday 22 Oct 2014 (Local Time) from KMWK Reporting Station
Clear Clear  
Wind Chill: 46°   Ceiling: Unl
Heat Index: 49°   Visibility: 10mi
Dew Point: 38°   Wind: 7mph
Humidity: 65%   Direction: 310°NW
Pressure: 30.06"   Gusts: NA
Location:  36.74°N, 80.39°W
Report Text: KMWK 221155Z AUTO 31006KT 10SM CLR 10/03 A3006 RMK AO2 T00960032 10108 20096
Loading
Personal Weather Stations






























Interactive Weather Map New forecast layout! Learn more

10-Day Weather Forecast

Advertisements
Track Severe Weather on mobile